createdAt,value
2022-09-09T00:00:15.121Z,100.00
2022-09-09T00:02:51.947Z,100.00
2022-09-09T00:05:29.311Z,100.00
2022-09-09T00:08:02.119Z,100.00
2022-09-09T00:10:32.236Z,100.00
2022-09-09T00:13:08.521Z,100.00
2022-09-09T00:15:42.511Z,100.00
2022-09-09T00:18:22.176Z,100.00
2022-09-09T00:20:56.002Z,100.00
2022-09-09T00:23:27.501Z,100.00
2022-09-09T00:26:04.449Z,100.00
2022-09-09T00:28:35.433Z,100.00
2022-09-09T00:31:13.846Z,100.00
2022-09-09T00:33:44.986Z,100.00
2022-09-09T00:36:16.658Z,100.00
2022-09-09T00:38:50.151Z,100.00
2022-09-09T00:41:24.710Z,100.00
2022-09-09T00:43:59.642Z,100.00
2022-09-09T00:46:42.430Z,100.00
2022-09-09T00:49:21.934Z,100.00
2022-09-09T00:52:01.324Z,100.00
2022-09-09T00:54:38.653Z,100.00
2022-09-09T00:57:16.821Z,100.00
2022-09-09T00:59:49.824Z,100.00
2022-09-09T01:02:29.011Z,100.00
2022-09-09T01:05:03.072Z,100.00
2022-09-09T01:07:30.778Z,100.00
2022-09-09T01:10:00.572Z,100.00
2022-09-09T01:12:37.658Z,100.00
2022-09-09T01:15:12.721Z,100.00
2022-09-09T01:17:59.961Z,100.00
2022-09-09T01:20:33.866Z,100.00
2022-09-09T01:23:22.345Z,100.00
2022-09-09T01:26:15.593Z,100.00
2022-09-09T01:28:46.417Z,100.00
2022-09-09T01:31:21.816Z,100.00
2022-09-09T01:33:50.429Z,100.00
2022-09-09T01:36:26.212Z,100.00
2022-09-09T01:38:55.426Z,100.00
2022-09-09T01:41:25.418Z,100.00
2022-09-09T01:44:02.848Z,100.00
2022-09-09T01:46:32.193Z,100.00
2022-09-09T01:49:04.846Z,100.00
2022-09-09T01:51:33.701Z,100.00
2022-09-09T01:54:05.908Z,100.00
2022-09-09T01:56:46.956Z,100.00
2022-09-09T01:59:37.653Z,100.00
2022-09-09T02:02:12.982Z,100.00
2022-09-09T02:04:51.388Z,100.00
2022-09-09T02:07:41.050Z,100.00
2022-09-09T02:10:22.303Z,100.00
2022-09-09T02:13:09.448Z,100.00
2022-09-09T02:15:44.542Z,100.00
2022-09-09T02:18:16.381Z,100.00
2022-09-09T02:20:48.320Z,100.00
2022-09-09T02:23:17.259Z,100.00
2022-09-09T02:25:48.454Z,100.00
2022-09-09T02:28:28.350Z,100.00
2022-09-09T02:30:59.608Z,100.00
2022-09-09T02:33:39.144Z,100.00
2022-09-09T02:36:10.911Z,100.00
2022-09-09T02:38:51.353Z,100.00
2022-09-09T02:41:22.678Z,100.00
2022-09-09T02:43:52.727Z,100.00
2022-09-09T02:46:39.495Z,100.00
2022-09-09T02:49:12.653Z,100.00
2022-09-09T02:51:53.935Z,100.00
2022-09-09T02:54:29.045Z,100.00
2022-09-09T02:56:57.361Z,100.00
2022-09-09T02:59:35.823Z,100.00
2022-09-09T03:02:03.837Z,100.00
2022-09-09T03:04:33.110Z,100.00
2022-09-09T03:07:04.509Z,100.00
2022-09-09T03:09:33.521Z,100.00
2022-09-09T03:12:01.499Z,100.00
2022-09-09T03:14:32.011Z,100.00
2022-09-09T03:17:01.950Z,100.00
2022-09-09T03:19:33.838Z,100.00
2022-09-09T03:22:01.648Z,100.00
2022-09-09T03:24:31.331Z,100.00
2022-09-09T03:26:59.590Z,100.00
2022-09-09T03:29:27.403Z,100.00
2022-09-09T03:31:58.470Z,100.00
2022-09-09T03:34:28.089Z,100.00
2022-09-09T03:36:58.294Z,100.00
2022-09-09T03:39:26.811Z,100.00
2022-09-09T03:41:55.188Z,100.00
2022-09-09T03:44:23.439Z,100.00
2022-09-09T03:46:51.238Z,100.00
2022-09-09T03:49:21.137Z,100.00
2022-09-09T03:51:51.597Z,100.00
2022-09-09T03:54:20.722Z,100.00
2022-09-09T03:56:48.723Z,100.00
2022-09-09T03:59:17.583Z,100.00
2022-09-09T04:01:46.336Z,100.00
2022-09-09T04:04:14.253Z,100.00
2022-09-09T04:06:42.389Z,100.00
2022-09-09T04:09:11.766Z,100.00
2022-09-09T04:11:39.735Z,100.00
2022-09-09T04:14:07.939Z,100.00
2022-09-09T04:16:38.351Z,100.00
2022-09-09T04:19:07.604Z,100.00
2022-09-09T04:21:36.837Z,100.00
2022-09-09T04:24:04.635Z,100.00
2022-09-09T04:26:35.019Z,100.00
2022-09-09T04:29:03.725Z,100.00
2022-09-09T04:31:32.069Z,100.00
2022-09-09T04:34:03.235Z,100.00
2022-09-09T04:36:31.151Z,100.00
2022-09-09T04:39:02.504Z,100.00
2022-09-09T04:41:32.324Z,100.00
2022-09-09T04:44:03.511Z,100.00
2022-09-09T04:46:31.426Z,100.00
2022-09-09T04:48:59.547Z,100.00
2022-09-09T04:51:32.191Z,100.00
2022-09-09T04:54:00.252Z,100.00
2022-09-09T04:56:29.171Z,100.00
2022-09-09T04:58:59.382Z,100.00
2022-09-09T05:01:42.554Z,100.00
2022-09-09T05:04:10.581Z,100.00
2022-09-09T05:06:38.564Z,100.00
2022-09-09T05:09:07.030Z,100.00
2022-09-09T05:11:37.013Z,100.00
2022-09-09T05:14:12.457Z,100.00
2022-09-09T05:16:41.852Z,100.00
2022-09-09T05:19:10.015Z,100.00
2022-09-09T05:21:45.609Z,100.00
2022-09-09T05:24:14.785Z,100.00
2022-09-09T05:26:43.880Z,100.00
2022-09-09T05:29:11.730Z,100.00
2022-09-09T05:31:40.311Z,100.00
2022-09-09T05:34:15.546Z,100.00
2022-09-09T05:36:43.716Z,100.00
2022-09-09T05:39:12.991Z,100.00
2022-09-09T05:41:40.935Z,100.00
2022-09-09T05:44:08.865Z,100.00
2022-09-09T05:46:40.115Z,100.00
2022-09-09T05:49:09.210Z,100.00
2022-09-09T05:51:39.502Z,100.00
2022-09-09T05:54:11.859Z,100.00
2022-09-09T05:56:46.169Z,100.00
2022-09-09T05:59:17.339Z,100.00
2022-09-09T06:01:46.292Z,100.00
2022-09-09T06:04:23.292Z,100.00
2022-09-09T06:06:53.707Z,100.00
2022-09-09T06:09:24.341Z,100.00
2022-09-09T06:11:52.159Z,100.00
2022-09-09T06:14:22.862Z,100.00
2022-09-09T06:16:52.781Z,100.00
2022-09-09T06:19:27.349Z,100.00
2022-09-09T06:21:59.523Z,100.00
2022-09-09T06:24:31.207Z,100.00
2022-09-09T06:27:01.267Z,100.00
2022-09-09T06:29:33.592Z,100.00
2022-09-09T06:32:03.447Z,100.00
2022-09-09T06:34:32.540Z,100.00
2022-09-09T06:37:03.078Z,100.00
2022-09-09T06:39:37.778Z,100.00
2022-09-09T06:42:06.282Z,100.00
2022-09-09T06:45:13.072Z,100.00
2022-09-09T06:47:50.478Z,100.00
2022-09-09T06:50:20.804Z,100.00
2022-09-09T06:52:52.715Z,100.00
2022-09-09T06:55:21.731Z,100.00
2022-09-09T06:57:50.025Z,100.00
2022-09-09T07:00:23.585Z,100.00
2022-09-09T07:02:53.305Z,100.00
2022-09-09T07:05:22.365Z,100.00
2022-09-09T07:07:52.880Z,100.00
2022-09-09T07:10:21.502Z,100.00
2022-09-09T07:12:53.881Z,100.00
2022-09-09T07:15:24.605Z,100.00
2022-09-09T07:17:54.006Z,100.00
2022-09-09T07:20:22.711Z,100.00
2022-09-09T07:22:57.673Z,100.00
2022-09-09T07:25:25.672Z,100.00
2022-09-09T07:27:59.093Z,100.00
2022-09-09T07:30:28.110Z,98.41
2022-09-09T07:32:58.063Z,97.97
2022-09-09T07:35:27.917Z,98.65
2022-09-09T07:37:59.269Z,98.29
2022-09-09T07:40:28.870Z,98.06
2022-09-09T07:42:57.167Z,97.39
2022-09-09T07:45:25.146Z,96.41
2022-09-09T07:47:53.703Z,99.02
2022-09-09T07:50:22.372Z,95.75
2022-09-09T07:52:52.410Z,94.60
2022-09-09T07:55:21.974Z,93.35
2022-09-09T07:57:50.133Z,93.16
2022-09-09T08:00:19.935Z,92.57
2022-09-09T08:02:53.114Z,92.39
2022-09-09T08:05:21.477Z,88.86
2022-09-09T08:07:50.486Z,87.58
2022-09-09T08:10:19.439Z,85.18
2022-09-09T08:13:07.914Z,83.16
2022-09-09T08:15:39.534Z,82.77
2022-09-09T08:18:11.451Z,83.41
2022-09-09T08:20:40.099Z,82.80
2022-09-09T08:23:08.549Z,83.58
2022-09-09T08:25:36.466Z,82.70
2022-09-09T08:28:06.058Z,83.56
2022-09-09T08:30:34.443Z,82.70
2022-09-09T08:33:02.428Z,83.30
2022-09-09T08:35:33.446Z,84.21
2022-09-09T08:38:01.455Z,83.62
2022-09-09T08:40:36.962Z,85.38
2022-09-09T08:43:08.149Z,85.86
2022-09-09T08:45:43.659Z,86.46
2022-09-09T08:48:30.750Z,83.63
2022-09-09T08:51:03.002Z,83.54
2022-09-09T08:53:44.454Z,82.92
2022-09-09T08:56:16.449Z,82.29
2022-09-09T08:58:57.694Z,81.88
2022-09-09T09:02:02.680Z,81.79
2022-09-09T09:05:03.238Z,80.47
2022-09-09T09:07:45.837Z,82.11
2022-09-09T09:10:42.823Z,82.22
2022-09-09T09:13:18.020Z,82.49
2022-09-09T09:15:54.057Z,82.69
2022-09-09T09:18:23.112Z,83.91
2022-09-09T09:21:04.932Z,83.77
2022-09-09T09:23:43.663Z,83.51
2022-09-09T09:26:12.867Z,83.83
2022-09-09T09:28:42.777Z,85.27
2022-09-09T09:31:17.295Z,82.13
2022-09-09T09:33:53.750Z,81.54
2022-09-09T09:36:34.953Z,78.40
2022-09-09T09:41:57.429Z,75.41
2022-09-09T09:44:28.336Z,75.05
2022-09-09T09:47:09.768Z,75.31
2022-09-09T09:49:38.467Z,75.17
2022-09-09T09:52:08.182Z,73.40
2022-09-09T09:54:42.473Z,72.01
2022-09-09T09:57:13.080Z,72.77
2022-09-09T09:59:43.734Z,69.27
2022-09-09T10:02:26.544Z,66.16
2022-09-09T10:05:07.408Z,63.78
2022-09-09T10:07:41.890Z,63.08
2022-09-09T10:10:22.978Z,65.54
2022-09-09T10:13:06.658Z,66.51
2022-09-09T10:15:46.641Z,67.41
2022-09-09T10:18:34.482Z,66.76
2022-09-09T10:21:12.659Z,68.35
2022-09-09T10:23:57.143Z,65.73
2022-09-09T10:26:37.649Z,63.64
2022-09-09T10:29:33.545Z,64.30
2022-09-09T10:32:20.954Z,63.59
2022-09-09T10:34:59.616Z,63.81
2022-09-09T10:37:44.542Z,63.64
2022-09-09T10:40:31.441Z,62.34
2022-09-09T10:43:11.755Z,66.92
2022-09-09T10:45:51.508Z,67.10
2022-09-09T10:48:33.604Z,66.05
2022-09-09T10:51:20.659Z,66.71
2022-09-09T10:54:00.666Z,69.81
2022-09-09T10:56:30.062Z,69.03
2022-09-09T10:59:02.521Z,68.93
2022-09-09T11:01:34.537Z,69.80
2022-09-09T11:04:07.461Z,71.09
2022-09-09T11:06:42.320Z,70.84
2022-09-09T11:09:18.057Z,70.23
2022-09-09T11:11:54.972Z,70.42
2022-09-09T11:14:35.368Z,72.22
2022-09-09T11:17:12.940Z,73.89
2022-09-09T11:19:43.052Z,75.15
2022-09-09T11:22:30.283Z,73.87
2022-09-09T11:25:04.245Z,71.90
2022-09-09T11:27:38.866Z,68.96
2022-09-09T11:30:32.349Z,67.85
2022-09-09T11:33:56.204Z,66.38
2022-09-09T11:36:45.248Z,67.11
2022-09-09T11:39:39.455Z,68.25
2022-09-09T11:42:09.154Z,66.88
2022-09-09T11:47:17.609Z,63.26
2022-09-09T11:49:47.587Z,59.45
2022-09-09T11:52:26.511Z,57.88
2022-09-09T11:54:58.958Z,59.79
2022-09-09T11:57:32.825Z,59.61
2022-09-09T12:00:01.495Z,60.35
2022-09-09T12:02:50.569Z,58.56
2022-09-09T12:05:21.009Z,57.48
2022-09-09T12:07:55.830Z,57.11
2022-09-09T12:10:30.712Z,54.67
2022-09-09T12:13:11.108Z,52.70
2022-09-09T12:15:49.516Z,53.02
2022-09-09T12:18:24.478Z,55.62
2022-09-09T12:21:01.469Z,56.04
2022-09-09T12:23:39.602Z,55.93
2022-09-09T12:26:34.367Z,56.50
2022-09-09T12:29:13.983Z,57.16
2022-09-09T12:31:48.971Z,58.24
2022-09-09T12:34:20.518Z,59.10
2022-09-09T12:36:56.858Z,60.42
2022-09-09T12:39:32.098Z,60.59
2022-09-09T12:42:06.244Z,61.39
2022-09-09T12:44:34.763Z,61.65
2022-09-09T12:47:04.996Z,62.95
2022-09-09T12:49:40.057Z,63.35
2022-09-09T12:52:11.175Z,64.49
2022-09-09T12:54:39.629Z,68.87
2022-09-09T12:57:14.494Z,73.81
2022-09-09T12:59:46.097Z,77.83
2022-09-09T13:02:21.494Z,81.41
2022-09-09T13:04:51.505Z,83.99
2022-09-09T13:07:20.585Z,84.88
2022-09-09T13:09:50.104Z,82.74
2022-09-09T13:12:21.948Z,85.22
2022-09-09T13:14:53.017Z,85.88
2022-09-09T13:17:24.185Z,86.71
2022-09-09T13:19:53.782Z,87.79
2022-09-09T13:22:33.867Z,88.28
2022-09-09T13:25:04.637Z,86.47
2022-09-09T13:27:35.860Z,80.14
2022-09-09T13:30:03.713Z,82.19
2022-09-09T13:32:32.482Z,76.14
2022-09-09T13:35:02.360Z,77.73
2022-09-09T13:37:35.225Z,78.63
2022-09-09T13:40:04.113Z,78.55
2022-09-09T13:42:37.074Z,77.81
2022-09-09T13:45:06.224Z,83.11
2022-09-09T13:47:36.419Z,82.28
2022-09-09T13:50:21.214Z,80.39
2022-09-09T13:52:50.087Z,75.15
2022-09-09T13:55:17.875Z,77.63
2022-09-09T13:57:54.744Z,78.46
2022-09-09T14:00:23.473Z,80.34
2022-09-09T14:02:51.619Z,82.30
2022-09-09T14:05:21.664Z,81.81
2022-09-09T14:07:53.186Z,81.12
2022-09-09T14:10:25.831Z,74.81
2022-09-09T14:12:55.773Z,73.58
2022-09-09T14:15:23.734Z,73.62
2022-09-09T14:17:53.157Z,73.70
2022-09-09T14:20:21.523Z,75.07
2022-09-09T14:22:49.429Z,75.89
2022-09-09T14:25:17.282Z,79.85
2022-09-09T14:27:46.850Z,80.20
2022-09-09T14:30:16.591Z,78.12
2022-09-09T14:32:44.577Z,77.87
2022-09-09T14:35:13.376Z,80.89
2022-09-09T14:37:41.756Z,82.32
2022-09-09T14:40:10.463Z,82.20
2022-09-09T14:42:38.332Z,79.33
2022-09-09T14:45:07.490Z,81.02
2022-09-09T14:47:37.400Z,80.08
2022-09-09T14:50:06.173Z,78.10
2022-09-09T14:52:34.286Z,79.35
2022-09-09T14:55:02.209Z,75.28
2022-09-09T14:57:30.070Z,75.89
2022-09-09T14:59:58.583Z,73.72
2022-09-09T15:02:26.474Z,75.81
2022-09-09T15:04:58.211Z,77.77
2022-09-09T15:07:26.298Z,79.63
2022-09-09T15:09:55.274Z,78.16
2022-09-09T15:12:23.961Z,76.34
2022-09-09T15:14:53.202Z,77.28
2022-09-09T15:17:21.733Z,74.90
2022-09-09T15:19:51.042Z,75.42
2022-09-09T15:22:20.631Z,73.73
2022-09-09T15:24:48.486Z,74.28
2022-09-09T15:27:16.545Z,75.01
2022-09-09T15:29:45.118Z,74.02
2022-09-09T15:32:13.056Z,72.17
2022-09-09T15:34:41.189Z,72.23
2022-09-09T15:37:14.066Z,70.06
2022-09-09T15:39:43.617Z,71.71
2022-09-09T15:42:12.121Z,70.61
2022-09-09T15:44:43.805Z,68.39
2022-09-09T15:47:14.454Z,67.80
2022-09-09T15:49:42.532Z,69.07
2022-09-09T15:52:12.645Z,69.48
2022-09-09T15:54:41.131Z,69.75
2022-09-09T15:57:13.786Z,69.68
2022-09-09T15:59:42.305Z,71.85
2022-09-09T16:02:11.853Z,72.42
2022-09-09T16:04:39.806Z,73.26
2022-09-09T16:07:08.072Z,73.26
2022-09-09T16:09:36.963Z,73.69
2022-09-09T16:12:08.874Z,74.77
2022-09-09T16:14:39.551Z,74.35
2022-09-09T16:17:08.062Z,74.26
2022-09-09T16:19:36.502Z,75.65
2022-09-09T16:22:05.070Z,75.49
2022-09-09T16:24:32.938Z,76.57
2022-09-09T16:27:02.146Z,76.19
2022-09-09T16:29:29.933Z,77.35
2022-09-09T16:32:03.543Z,76.52
2022-09-09T16:34:32.208Z,77.57
2022-09-09T16:36:59.986Z,76.86
2022-09-09T16:39:27.844Z,76.80
2022-09-09T16:41:55.863Z,77.74
2022-09-09T16:44:24.315Z,78.60
2022-09-09T16:46:58.098Z,78.99
2022-09-09T16:49:29.265Z,79.29
2022-09-09T16:52:00.398Z,80.16
2022-09-09T16:54:29.927Z,79.61
2022-09-09T16:56:58.536Z,78.45
2022-09-09T16:59:27.417Z,78.44
2022-09-09T17:01:55.473Z,79.25
2022-09-09T17:04:27.288Z,80.84
2022-09-09T17:06:58.136Z,81.20
2022-09-09T17:09:31.970Z,82.29
2022-09-09T17:12:00.883Z,82.65
2022-09-09T17:14:29.472Z,82.18
2022-09-09T17:17:13.713Z,82.59
2022-09-09T17:19:46.869Z,82.10
2022-09-09T17:22:17.733Z,82.50
2022-09-09T17:24:46.657Z,82.60
2022-09-09T17:27:14.768Z,83.35
2022-09-09T17:29:44.663Z,83.98
2022-09-09T17:32:13.095Z,85.12
2022-09-09T17:34:40.970Z,85.10
2022-09-09T17:37:09.078Z,84.64
2022-09-09T17:39:38.408Z,85.83
2022-09-09T17:42:08.329Z,87.40
2022-09-09T17:44:36.279Z,90.61
2022-09-09T17:47:05.310Z,95.00
2022-09-09T17:49:33.265Z,99.96
2022-09-09T17:52:01.189Z,100.00
2022-09-09T17:54:29.388Z,100.00
2022-09-09T17:57:00.334Z,100.00
2022-09-09T17:59:28.350Z,100.00
2022-09-09T18:01:56.638Z,100.00
2022-09-09T18:04:25.144Z,100.00
2022-09-09T18:06:54.161Z,100.00
2022-09-09T18:09:25.242Z,100.00
2022-09-09T18:11:56.324Z,100.00
2022-09-09T18:14:28.715Z,100.00
2022-09-09T18:16:56.540Z,100.00
2022-09-09T18:19:26.421Z,100.00
2022-09-09T18:21:57.454Z,100.00
2022-09-09T18:24:28.487Z,100.00
2022-09-09T18:26:56.274Z,100.00
2022-09-09T18:29:26.260Z,100.00
2022-09-09T18:31:55.217Z,100.00
2022-09-09T18:34:25.514Z,100.00
2022-09-09T18:36:56.162Z,100.00
2022-09-09T18:39:27.583Z,100.00
2022-09-09T18:41:59.585Z,100.00
2022-09-09T18:44:31.308Z,100.00
2022-09-09T18:46:59.609Z,100.00
2022-09-09T18:49:28.205Z,100.00
2022-09-09T18:51:56.482Z,100.00
2022-09-09T18:54:26.308Z,100.00
2022-09-09T18:56:54.231Z,100.00
2022-09-09T18:59:24.827Z,100.00
2022-09-09T19:01:55.313Z,100.00
2022-09-09T19:04:31.958Z,100.00
2022-09-09T19:07:00.195Z,100.00
2022-09-09T19:09:31.115Z,100.00
2022-09-09T19:12:01.096Z,100.00
2022-09-09T19:14:30.177Z,100.00
2022-09-09T19:17:00.375Z,100.00
2022-09-09T19:19:30.393Z,100.00
2022-09-09T19:21:58.766Z,100.00
2022-09-09T19:24:28.694Z,100.00
2022-09-09T19:26:58.658Z,100.00
2022-09-09T19:29:28.947Z,100.00
2022-09-09T19:34:49.207Z,100.00
2022-09-09T19:37:18.647Z,100.00
2022-09-09T19:39:47.397Z,100.00
2022-09-09T19:42:16.130Z,100.00
2022-09-09T19:44:44.416Z,100.00
2022-09-09T19:47:15.003Z,100.00
2022-09-09T19:49:46.917Z,100.00
2022-09-09T19:52:16.319Z,100.00
2022-09-09T19:54:47.540Z,100.00
2022-09-09T19:57:15.668Z,100.00
2022-09-09T19:59:43.942Z,100.00
2022-09-09T20:02:16.616Z,100.00
2022-09-09T20:04:44.802Z,100.00
2022-09-09T20:07:12.880Z,100.00
2022-09-09T20:09:40.869Z,100.00
2022-09-09T20:12:09.924Z,100.00
2022-09-09T20:14:39.845Z,100.00
2022-09-09T20:17:08.025Z,100.00
2022-09-09T20:19:37.346Z,100.00
2022-09-09T20:22:05.585Z,100.00
2022-09-09T20:24:33.322Z,100.00
2022-09-09T20:27:01.229Z,100.00
2022-09-09T20:29:29.592Z,100.00
2022-09-09T20:31:58.694Z,100.00
2022-09-09T20:34:28.139Z,100.00
2022-09-09T20:36:59.240Z,100.00
2022-09-09T20:39:27.768Z,100.00
2022-09-09T20:41:55.558Z,100.00
2022-09-09T20:44:24.993Z,100.00
2022-09-09T20:46:57.183Z,100.00
2022-09-09T20:49:25.656Z,100.00
2022-09-09T20:51:55.070Z,100.00
2022-09-09T20:54:26.299Z,100.00
2022-09-09T20:56:55.520Z,100.00
2022-09-09T20:59:25.261Z,100.00
2022-09-09T21:01:53.947Z,100.00
2022-09-09T21:04:23.005Z,100.00
2022-09-09T21:06:51.474Z,100.00
2022-09-09T21:09:23.048Z,100.00
2022-09-09T21:11:53.406Z,100.00
2022-09-09T21:14:21.278Z,100.00
2022-09-09T21:16:49.070Z,100.00
2022-09-09T21:19:16.924Z,100.00
2022-09-09T21:21:45.337Z,100.00
2022-09-09T21:24:13.187Z,100.00
2022-09-09T21:26:41.353Z,100.00
2022-09-09T21:29:10.666Z,100.00
2022-09-09T21:31:39.228Z,100.00
2022-09-09T21:34:07.410Z,100.00
2022-09-09T21:36:35.437Z,100.00
2022-09-09T21:39:03.206Z,100.00
2022-09-09T21:41:31.126Z,100.00
2022-09-09T21:43:59.355Z,100.00
2022-09-09T21:46:29.325Z,100.00
2022-09-09T21:48:58.416Z,100.00
2022-09-09T21:51:26.830Z,100.00
2022-09-09T21:53:56.772Z,100.00
2022-09-09T21:56:26.684Z,100.00
2022-09-09T21:58:59.034Z,100.00
2022-09-09T22:01:28.354Z,100.00
2022-09-09T22:03:56.341Z,100.00
2022-09-09T22:06:24.525Z,100.00
2022-09-09T22:08:52.369Z,100.00
2022-09-09T22:11:22.188Z,100.00
2022-09-09T22:13:50.649Z,100.00
2022-09-09T22:16:20.667Z,100.00
2022-09-09T22:18:53.411Z,100.00
2022-09-09T22:21:22.991Z,100.00
2022-09-09T22:23:54.650Z,100.00
2022-09-09T22:26:22.644Z,100.00
2022-09-09T22:28:50.761Z,100.00
2022-09-09T22:31:18.664Z,100.00
2022-09-09T22:33:46.844Z,100.00
2022-09-09T22:36:16.147Z,100.00
2022-09-09T22:38:43.949Z,100.00
2022-09-09T22:41:12.597Z,100.00
2022-09-09T22:43:43.330Z,100.00
2022-09-09T22:46:11.522Z,100.00
2022-09-09T22:48:40.084Z,100.00
2022-09-09T22:51:10.353Z,100.00
2022-09-09T22:53:40.766Z,100.00
2022-09-09T22:56:14.000Z,100.00
2022-09-09T22:58:42.145Z,100.00
2022-09-09T23:01:12.109Z,100.00
2022-09-09T23:03:42.094Z,100.00
2022-09-09T23:06:12.630Z,100.00
2022-09-09T23:08:42.112Z,100.00
2022-09-09T23:11:13.630Z,100.00
2022-09-09T23:13:43.699Z,100.00
2022-09-09T23:16:12.524Z,100.00
2022-09-09T23:18:41.393Z,100.00
2022-09-09T23:21:09.422Z,100.00
2022-09-09T23:23:37.547Z,100.00
2022-09-09T23:26:07.561Z,100.00
2022-09-09T23:28:37.232Z,100.00
2022-09-09T23:31:09.704Z,100.00
2022-09-09T23:33:38.314Z,100.00
2022-09-09T23:36:09.185Z,100.00
2022-09-09T23:38:37.935Z,100.00
2022-09-09T23:41:09.564Z,100.00
2022-09-09T23:43:39.463Z,100.00
2022-09-09T23:46:08.720Z,100.00
2022-09-09T23:48:39.231Z,100.00
2022-09-09T23:51:09.409Z,100.00
2022-09-09T23:53:37.296Z,100.00
2022-09-09T23:56:07.533Z,100.00
2022-09-09T23:58:35.652Z,100.00
